sensor_id;sensor_type;location;lat;lon;timestamp;P1;durP1;ratioP1;P2;durP2;ratioP2
78561;SDS011;68963;52.138;5.446;2024-03-25T00:01:27;11.32;;;2.10;;
78561;SDS011;68963;52.138;5.446;2024-03-25T00:03:53;11.45;;;1.73;;
78561;SDS011;68963;52.138;5.446;2024-03-25T00:06:19;13.20;;;2.22;;
78561;SDS011;68963;52.138;5.446;2024-03-25T00:08:44;10.10;;;1.67;;
78561;SDS011;68963;52.138;5.446;2024-03-25T00:11:10;12.88;;;1.55;;
78561;SDS011;68963;52.138;5.446;2024-03-25T00:13:35;9.77;;;1.90;;
78561;SDS011;68963;52.138;5.446;2024-03-25T00:16:01;8.77;;;1.42;;
78561;SDS011;68963;52.138;5.446;2024-03-25T00:18:27;10.18;;;1.33;;
78561;SDS011;68963;52.138;5.446;2024-03-25T00:20:52;14.38;;;1.60;;
78561;SDS011;68963;52.138;5.446;2024-03-25T00:23:18;11.52;;;1.77;;
78561;SDS011;68963;52.138;5.446;2024-03-25T00:25:43;8.57;;;1.75;;
78561;SDS011;68963;52.138;5.446;2024-03-25T00:28:09;10.85;;;1.95;;
78561;SDS011;68963;52.138;5.446;2024-03-25T00:30:34;13.70;;;1.85;;
78561;SDS011;68963;52.138;5.446;2024-03-25T00:33:00;12.80;;;1.50;;
78561;SDS011;68963;52.138;5.446;2024-03-25T00:35:26;17.35;;;2.10;;
78561;SDS011;68963;52.138;5.446;2024-03-25T00:37:51;11.48;;;2.08;;
78561;SDS011;68963;52.138;5.446;2024-03-25T00:40:17;10.52;;;1.63;;
78561;SDS011;68963;52.138;5.446;2024-03-25T00:42:42;13.75;;;1.77;;
78561;SDS011;68963;52.138;5.446;2024-03-25T00:45:08;8.48;;;1.70;;
78561;SDS011;68963;52.138;5.446;2024-03-25T00:47:34;7.07;;;1.63;;
78561;SDS011;68963;52.138;5.446;2024-03-25T00:50:00;8.70;;;1.77;;
78561;SDS011;68963;52.138;5.446;2024-03-25T00:52:25;15.75;;;2.15;;
78561;SDS011;68963;52.138;5.446;2024-03-25T00:54:51;13.18;;;1.83;;
78561;SDS011;68963;52.138;5.446;2024-03-25T00:57:16;9.52;;;1.52;;
78561;SDS011;68963;52.138;5.446;2024-03-25T00:59:43;11.18;;;1.80;;
78561;SDS011;68963;52.138;5.446;2024-03-25T01:02:09;10.77;;;1.85;;
78561;SDS011;68963;52.138;5.446;2024-03-25T01:04:34;8.18;;;1.52;;
78561;SDS011;68963;52.138;5.446;2024-03-25T01:07:00;13.75;;;1.52;;
78561;SDS011;68963;52.138;5.446;2024-03-25T01:09:26;10.30;;;1.52;;
78561;SDS011;68963;52.138;5.446;2024-03-25T01:11:51;12.15;;;1.80;;
78561;SDS011;68963;52.138;5.446;2024-03-25T01:14:17;15.15;;;1.85;;
78561;SDS011;68963;52.138;5.446;2024-03-25T01:16:42;10.23;;;1.63;;
78561;SDS011;68963;52.138;5.446;2024-03-25T01:19:08;13.15;;;1.63;;
78561;SDS011;68963;52.138;5.446;2024-03-25T01:21:34;13.77;;;1.65;;
78561;SDS011;68963;52.138;5.446;2024-03-25T01:24:00;6.90;;;1.30;;
78561;SDS011;68963;52.138;5.446;2024-03-25T01:26:26;17.20;;;2.00;;
78561;SDS011;68963;52.138;5.446;2024-03-25T01:28:52;12.43;;;2.15;;
78561;SDS011;68963;52.138;5.446;2024-03-25T01:31:18;8.85;;;1.80;;
78561;SDS011;68963;52.138;5.446;2024-03-25T01:33:44;8.65;;;1.42;;
78561;SDS011;68963;52.138;5.446;2024-03-25T01:36:10;17.42;;;2.25;;
78561;SDS011;68963;52.138;5.446;2024-03-25T01:38:41;9.85;;;1.83;;
78561;SDS011;68963;52.138;5.446;2024-03-25T01:41:11;12.63;;;2.05;;
78561;SDS011;68963;52.138;5.446;2024-03-25T01:43:38;11.10;;;1.42;;
78561;SDS011;68963;52.138;5.446;2024-03-25T01:46:04;9.48;;;1.60;;
78561;SDS011;68963;52.138;5.446;2024-03-25T01:48:31;10.82;;;1.65;;
78561;SDS011;68963;52.138;5.446;2024-03-25T01:50:57;12.07;;;1.95;;
78561;SDS011;68963;52.138;5.446;2024-03-25T01:53:23;12.85;;;1.80;;
78561;SDS011;68963;52.138;5.446;2024-03-25T01:55:49;11.70;;;1.80;;
78561;SDS011;68963;52.138;5.446;2024-03-25T01:58:20;12.85;;;1.52;;
78561;SDS011;68963;52.138;5.446;2024-03-25T02:00:46;13.77;;;1.75;;
78561;SDS011;68963;52.138;5.446;2024-03-25T02:03:12;10.63;;;1.73;;
78561;SDS011;68963;52.138;5.446;2024-03-25T02:05:38;13.35;;;1.77;;
78561;SDS011;68963;52.138;5.446;2024-03-25T02:08:04;10.43;;;1.40;;
78561;SDS011;68963;52.138;5.446;2024-03-25T02:10:31;11.80;;;2.47;;
78561;SDS011;68963;52.138;5.446;2024-03-25T02:12:57;13.80;;;2.05;;
78561;SDS011;68963;52.138;5.446;2024-03-25T02:15:23;10.75;;;1.63;;
78561;SDS011;68963;52.138;5.446;2024-03-25T02:17:51;13.60;;;1.85;;
78561;SDS011;68963;52.138;5.446;2024-03-25T02:20:17;10.43;;;1.70;;
78561;SDS011;68963;52.138;5.446;2024-03-25T02:22:43;10.15;;;1.90;;
78561;SDS011;68963;52.138;5.446;2024-03-25T02:25:09;11.35;;;2.00;;
78561;SDS011;68963;52.138;5.446;2024-03-25T02:27:36;11.18;;;1.75;;
78561;SDS011;68963;52.138;5.446;2024-03-25T02:30:09;11.60;;;2.17;;
78561;SDS011;68963;52.138;5.446;2024-03-25T02:35:04;10.57;;;2.25;;
78561;SDS011;68963;52.138;5.446;2024-03-25T02:37:32;10.52;;;1.70;;
78561;SDS011;68963;52.138;5.446;2024-03-25T02:39:58;13.85;;;2.25;;
78561;SDS011;68963;52.138;5.446;2024-03-25T02:42:26;12.80;;;1.70;;
78561;SDS011;68963;52.138;5.446;2024-03-25T02:44:55;14.07;;;1.88;;
78561;SDS011;68963;52.138;5.446;2024-03-25T02:47:21;12.20;;;1.70;;
78561;SDS011;68963;52.138;5.446;2024-03-25T02:49:47;14.45;;;2.30;;
78561;SDS011;68963;52.138;5.446;2024-03-25T02:52:13;10.95;;;1.83;;
78561;SDS011;68963;52.138;5.446;2024-03-25T02:54:39;11.70;;;1.75;;
78561;SDS011;68963;52.138;5.446;2024-03-25T02:57:04;15.10;;;1.75;;
78561;SDS011;68963;52.138;5.446;2024-03-25T02:59:30;12.32;;;2.22;;
78561;SDS011;68963;52.138;5.446;2024-03-25T03:01:56;12.20;;;2.42;;
78561;SDS011;68963;52.138;5.446;2024-03-25T03:04:21;8.70;;;1.63;;
78561;SDS011;68963;52.138;5.446;2024-03-25T03:06:47;13.55;;;1.77;;
78561;SDS011;68963;52.138;5.446;2024-03-25T03:09:12;15.52;;;2.25;;
78561;SDS011;68963;52.138;5.446;2024-03-25T03:11:38;12.60;;;1.90;;
78561;SDS011;68963;52.138;5.446;2024-03-25T03:14:03;9.32;;;1.45;;
78561;SDS011;68963;52.138;5.446;2024-03-25T03:16:29;13.55;;;1.67;;
78561;SDS011;68963;52.138;5.446;2024-03-25T03:18:55;9.65;;;1.83;;
78561;SDS011;68963;52.138;5.446;2024-03-25T03:21:20;10.65;;;2.15;;
78561;SDS011;68963;52.138;5.446;2024-03-25T03:23:46;8.45;;;1.73;;
78561;SDS011;68963;52.138;5.446;2024-03-25T03:26:12;10.02;;;1.70;;
78561;SDS011;68963;52.138;5.446;2024-03-25T03:28:39;9.80;;;1.73;;
78561;SDS011;68963;52.138;5.446;2024-03-25T03:31:05;15.13;;;1.70;;
78561;SDS011;68963;52.138;5.446;2024-03-25T03:33:31;10.63;;;2.10;;
78561;SDS011;68963;52.138;5.446;2024-03-25T03:35:57;13.27;;;1.75;;
78561;SDS011;68963;52.138;5.446;2024-03-25T03:38:22;11.35;;;1.90;;
78561;SDS011;68963;52.138;5.446;2024-03-25T03:41:01;9.85;;;1.67;;
78561;SDS011;68963;52.138;5.446;2024-03-25T03:43:28;16.98;;;2.22;;
78561;SDS011;68963;52.138;5.446;2024-03-25T03:45:54;14.55;;;1.88;;
78561;SDS011;68963;52.138;5.446;2024-03-25T03:48:19;11.10;;;1.92;;
78561;SDS011;68963;52.138;5.446;2024-03-25T03:50:45;9.00;;;1.90;;
78561;SDS011;68963;52.138;5.446;2024-03-25T03:53:11;14.65;;;2.03;;
78561;SDS011;68963;52.138;5.446;2024-03-25T03:55:36;13.23;;;2.10;;
78561;SDS011;68963;52.138;5.446;2024-03-25T03:58:02;9.82;;;2.13;;
78561;SDS011;68963;52.138;5.446;2024-03-25T04:00:28;12.23;;;1.95;;
78561;SDS011;68963;52.138;5.446;2024-03-25T04:02:53;8.63;;;1.90;;
78561;SDS011;68963;52.138;5.446;2024-03-25T04:05:19;9.98;;;2.20;;
78561;SDS011;68963;52.138;5.446;2024-03-25T04:07:45;8.30;;;1.70;;
78561;SDS011;68963;52.138;5.446;2024-03-25T04:10:10;12.60;;;1.60;;
78561;SDS011;68963;52.138;5.446;2024-03-25T04:12:36;11.93;;;2.10;;
78561;SDS011;68963;52.138;5.446;2024-03-25T04:15:02;13.52;;;2.03;;
78561;SDS011;68963;52.138;5.446;2024-03-25T04:17:28;10.65;;;2.20;;
78561;SDS011;68963;52.138;5.446;2024-03-25T04:19:54;9.25;;;2.00;;
78561;SDS011;68963;52.138;5.446;2024-03-25T04:22:20;12.98;;;1.80;;
78561;SDS011;68963;52.138;5.446;2024-03-25T04:24:45;13.40;;;2.05;;
78561;SDS011;68963;52.138;5.446;2024-03-25T04:27:11;15.70;;;2.10;;
78561;SDS011;68963;52.138;5.446;2024-03-25T04:29:37;14.20;;;2.20;;
78561;SDS011;68963;52.138;5.446;2024-03-25T04:32:02;8.77;;;1.80;;
78561;SDS011;68963;52.138;5.446;2024-03-25T04:34:29;9.95;;;1.85;;
78561;SDS011;68963;52.138;5.446;2024-03-25T04:36:55;11.73;;;2.50;;
78561;SDS011;68963;52.138;5.446;2024-03-25T04:39:21;11.68;;;2.03;;
78561;SDS011;68963;52.138;5.446;2024-03-25T04:41:47;7.43;;;1.50;;
78561;SDS011;68963;52.138;5.446;2024-03-25T04:44:13;7.20;;;1.70;;
78561;SDS011;68963;52.138;5.446;2024-03-25T04:46:38;12.40;;;1.83;;
78561;SDS011;68963;52.138;5.446;2024-03-25T04:49:04;10.85;;;1.83;;
78561;SDS011;68963;52.138;5.446;2024-03-25T04:51:30;11.95;;;2.15;;
78561;SDS011;68963;52.138;5.446;2024-03-25T04:53:57;15.38;;;2.63;;
78561;SDS011;68963;52.138;5.446;2024-03-25T04:56:22;11.30;;;2.47;;
78561;SDS011;68963;52.138;5.446;2024-03-25T04:58:48;10.95;;;2.10;;
78561;SDS011;68963;52.138;5.446;2024-03-25T05:01:13;8.82;;;1.80;;
78561;SDS011;68963;52.138;5.446;2024-03-25T05:03:39;14.10;;;2.00;;
78561;SDS011;68963;52.138;5.446;2024-03-25T05:06:04;9.15;;;1.80;;
78561;SDS011;68963;52.138;5.446;2024-03-25T05:08:30;9.73;;;2.03;;
78561;SDS011;68963;52.138;5.446;2024-03-25T05:10:56;7.68;;;1.92;;
78561;SDS011;68963;52.138;5.446;2024-03-25T05:13:22;7.60;;;1.65;;
78561;SDS011;68963;52.138;5.446;2024-03-25T05:15:50;9.48;;;1.90;;
78561;SDS011;68963;52.138;5.446;2024-03-25T05:18:17;11.45;;;1.90;;
78561;SDS011;68963;52.138;5.446;2024-03-25T05:20:44;10.07;;;1.95;;
78561;SDS011;68963;52.138;5.446;2024-03-25T05:23:10;7.10;;;1.65;;
78561;SDS011;68963;52.138;5.446;2024-03-25T05:25:36;6.40;;;2.10;;
78561;SDS011;68963;52.138;5.446;2024-03-25T05:28:02;9.27;;;1.88;;
78561;SDS011;68963;52.138;5.446;2024-03-25T05:30:27;8.43;;;1.88;;
78561;SDS011;68963;52.138;5.446;2024-03-25T05:32:53;8.65;;;1.75;;
78561;SDS011;68963;52.138;5.446;2024-03-25T05:35:19;13.30;;;2.70;;
78561;SDS011;68963;52.138;5.446;2024-03-25T05:37:44;8.60;;;1.80;;
78561;SDS011;68963;52.138;5.446;2024-03-25T05:40:10;10.82;;;1.95;;
78561;SDS011;68963;52.138;5.446;2024-03-25T05:42:37;9.68;;;1.92;;
78561;SDS011;68963;52.138;5.446;2024-03-25T05:45:03;7.95;;;2.00;;
78561;SDS011;68963;52.138;5.446;2024-03-25T05:47:29;9.48;;;1.80;;
78561;SDS011;68963;52.138;5.446;2024-03-25T05:49:54;10.45;;;1.98;;
78561;SDS011;68963;52.138;5.446;2024-03-25T05:52:20;11.30;;;2.05;;
78561;SDS011;68963;52.138;5.446;2024-03-25T05:54:45;11.75;;;2.33;;
78561;SDS011;68963;52.138;5.446;2024-03-25T05:57:11;9.95;;;1.92;;
78561;SDS011;68963;52.138;5.446;2024-03-25T05:59:37;12.43;;;2.63;;
78561;SDS011;68963;52.138;5.446;2024-03-25T06:02:02;14.15;;;2.60;;
78561;SDS011;68963;52.138;5.446;2024-03-25T06:04:28;12.32;;;2.70;;
78561;SDS011;68963;52.138;5.446;2024-03-25T06:06:53;9.07;;;2.20;;
78561;SDS011;68963;52.138;5.446;2024-03-25T06:09:19;15.70;;;2.72;;
78561;SDS011;68963;52.138;5.446;2024-03-25T06:11:44;12.52;;;2.78;;
78561;SDS011;68963;52.138;5.446;2024-03-25T06:14:10;12.15;;;2.60;;
78561;SDS011;68963;52.138;5.446;2024-03-25T06:16:35;16.48;;;2.60;;
78561;SDS011;68963;52.138;5.446;2024-03-25T06:19:01;9.98;;;2.63;;
78561;SDS011;68963;52.138;5.446;2024-03-25T06:21:27;10.65;;;2.90;;
78561;SDS011;68963;52.138;5.446;2024-03-25T06:23:54;12.65;;;2.85;;
78561;SDS011;68963;52.138;5.446;2024-03-25T06:26:19;10.55;;;2.72;;
78561;SDS011;68963;52.138;5.446;2024-03-25T06:28:45;12.77;;;2.65;;
78561;SDS011;68963;52.138;5.446;2024-03-25T06:31:11;8.35;;;2.47;;
78561;SDS011;68963;52.138;5.446;2024-03-25T06:33:55;11.88;;;2.70;;
78561;SDS011;68963;52.138;5.446;2024-03-25T06:36:39;12.40;;;3.25;;
78561;SDS011;68963;52.138;5.446;2024-03-25T06:39:05;13.80;;;2.97;;
78561;SDS011;68963;52.138;5.446;2024-03-25T06:41:31;13.57;;;3.38;;
78561;SDS011;68963;52.138;5.446;2024-03-25T06:43:57;11.07;;;2.95;;
78561;SDS011;68963;52.138;5.446;2024-03-25T06:46:22;14.65;;;3.72;;
78561;SDS011;68963;52.138;5.446;2024-03-25T06:48:48;11.30;;;3.25;;
78561;SDS011;68963;52.138;5.446;2024-03-25T06:51:13;15.88;;;3.30;;
78561;SDS011;68963;52.138;5.446;2024-03-25T06:53:39;10.38;;;3.00;;
78561;SDS011;68963;52.138;5.446;2024-03-25T06:56:05;12.23;;;3.42;;
78561;SDS011;68963;52.138;5.446;2024-03-25T06:58:31;14.25;;;3.45;;
78561;SDS011;68963;52.138;5.446;2024-03-25T07:00:56;15.70;;;3.17;;
78561;SDS011;68963;52.138;5.446;2024-03-25T07:03:29;10.63;;;2.80;;
78561;SDS011;68963;52.138;5.446;2024-03-25T07:05:55;16.60;;;3.40;;
78561;SDS011;68963;52.138;5.446;2024-03-25T07:08:22;12.00;;;2.75;;
78561;SDS011;68963;52.138;5.446;2024-03-25T07:10:47;13.05;;;3.05;;
78561;SDS011;68963;52.138;5.446;2024-03-25T07:13:13;14.90;;;2.92;;
78561;SDS011;68963;52.138;5.446;2024-03-25T07:15:39;12.80;;;3.40;;
78561;SDS011;68963;52.138;5.446;2024-03-25T07:18:05;10.65;;;2.70;;
78561;SDS011;68963;52.138;5.446;2024-03-25T07:20:31;12.85;;;3.42;;
78561;SDS011;68963;52.138;5.446;2024-03-25T07:22:57;13.20;;;2.88;;
78561;SDS011;68963;52.138;5.446;2024-03-25T07:25:23;15.75;;;2.80;;
78561;SDS011;68963;52.138;5.446;2024-03-25T07:27:49;14.85;;;3.03;;
78561;SDS011;68963;52.138;5.446;2024-03-25T07:30:15;11.88;;;3.05;;
78561;SDS011;68963;52.138;5.446;2024-03-25T07:32:41;14.27;;;3.50;;
78561;SDS011;68963;52.138;5.446;2024-03-25T07:35:06;14.10;;;2.65;;
78561;SDS011;68963;52.138;5.446;2024-03-25T07:37:34;12.02;;;2.85;;
78561;SDS011;68963;52.138;5.446;2024-03-25T07:40:00;11.85;;;2.60;;
78561;SDS011;68963;52.138;5.446;2024-03-25T07:42:25;11.55;;;2.90;;
78561;SDS011;68963;52.138;5.446;2024-03-25T07:44:51;10.93;;;2.75;;
78561;SDS011;68963;52.138;5.446;2024-03-25T07:47:17;12.00;;;3.25;;
78561;SDS011;68963;52.138;5.446;2024-03-25T07:49:42;13.80;;;3.35;;
78561;SDS011;68963;52.138;5.446;2024-03-25T07:52:08;12.18;;;2.70;;
78561;SDS011;68963;52.138;5.446;2024-03-25T07:54:33;13.63;;;2.60;;
78561;SDS011;68963;52.138;5.446;2024-03-25T07:57:01;14.18;;;2.80;;
78561;SDS011;68963;52.138;5.446;2024-03-25T07:59:28;13.32;;;2.63;;
78561;SDS011;68963;52.138;5.446;2024-03-25T08:01:54;14.60;;;3.20;;
78561;SDS011;68963;52.138;5.446;2024-03-25T08:04:20;11.60;;;2.55;;
78561;SDS011;68963;52.138;5.446;2024-03-25T08:06:45;15.50;;;2.90;;
78561;SDS011;68963;52.138;5.446;2024-03-25T08:09:11;12.02;;;2.83;;
78561;SDS011;68963;52.138;5.446;2024-03-25T08:11:39;15.73;;;3.13;;
78561;SDS011;68963;52.138;5.446;2024-03-25T08:14:05;15.98;;;3.00;;
78561;SDS011;68963;52.138;5.446;2024-03-25T08:16:30;14.05;;;2.90;;
78561;SDS011;68963;52.138;5.446;2024-03-25T08:18:56;13.40;;;2.80;;
78561;SDS011;68963;52.138;5.446;2024-03-25T08:21:22;14.93;;;2.42;;
78561;SDS011;68963;52.138;5.446;2024-03-25T08:23:48;11.00;;;2.00;;
78561;SDS011;68963;52.138;5.446;2024-03-25T08:26:14;15.50;;;2.40;;
78561;SDS011;68963;52.138;5.446;2024-03-25T08:28:39;10.98;;;2.28;;
78561;SDS011;68963;52.138;5.446;2024-03-25T08:31:05;14.35;;;2.30;;
78561;SDS011;68963;52.138;5.446;2024-03-25T08:33:31;9.38;;;2.03;;
78561;SDS011;68963;52.138;5.446;2024-03-25T08:35:57;11.52;;;1.83;;
78561;SDS011;68963;52.138;5.446;2024-03-25T08:38:22;10.55;;;1.73;;
78561;SDS011;68963;52.138;5.446;2024-03-25T08:40:48;9.02;;;1.70;;
78561;SDS011;68963;52.138;5.446;2024-03-25T08:43:14;9.98;;;1.80;;
78561;SDS011;68963;52.138;5.446;2024-03-25T08:45:39;11.43;;;1.80;;
78561;SDS011;68963;52.138;5.446;2024-03-25T08:48:06;12.40;;;1.92;;
78561;SDS011;68963;52.138;5.446;2024-03-25T08:50:32;8.55;;;1.73;;
78561;SDS011;68963;52.138;5.446;2024-03-25T08:52:58;9.35;;;2.33;;
78561;SDS011;68963;52.138;5.446;2024-03-25T08:55:23;9.70;;;2.00;;
78561;SDS011;68963;52.138;5.446;2024-03-25T08:57:49;9.07;;;1.60;;
78561;SDS011;68963;52.138;5.446;2024-03-25T09:00:16;12.15;;;2.70;;
78561;SDS011;68963;52.138;5.446;2024-03-25T09:02:43;9.20;;;1.83;;
78561;SDS011;68963;52.138;5.446;2024-03-25T09:05:09;9.38;;;2.10;;
78561;SDS011;68963;52.138;5.446;2024-03-25T09:07:35;12.48;;;2.28;;
78561;SDS011;68963;52.138;5.446;2024-03-25T09:10:02;17.13;;;2.75;;
78561;SDS011;68963;52.138;5.446;2024-03-25T09:12:46;12.00;;;2.78;;
78561;SDS011;68963;52.138;5.446;2024-03-25T09:15:12;15.00;;;4.35;;
78561;SDS011;68963;52.138;5.446;2024-03-25T09:17:37;11.27;;;3.10;;
78561;SDS011;68963;52.138;5.446;2024-03-25T09:20:04;12.57;;;2.83;;
78561;SDS011;68963;52.138;5.446;2024-03-25T09:22:41;13.38;;;3.92;;
78561;SDS011;68963;52.138;5.446;2024-03-25T09:25:10;9.00;;;2.10;;
78561;SDS011;68963;52.138;5.446;2024-03-25T09:27:36;12.10;;;1.90;;
78561;SDS011;68963;52.138;5.446;2024-03-25T09:30:02;13.77;;;1.88;;
78561;SDS011;68963;52.138;5.446;2024-03-25T09:32:29;9.90;;;2.40;;
78561;SDS011;68963;52.138;5.446;2024-03-25T09:34:56;11.50;;;2.15;;
78561;SDS011;68963;52.138;5.446;2024-03-25T09:37:22;12.35;;;3.00;;
78561;SDS011;68963;52.138;5.446;2024-03-25T09:39:48;15.65;;;4.85;;
78561;SDS011;68963;52.138;5.446;2024-03-25T09:42:15;15.27;;;5.35;;
78561;SDS011;68963;52.138;5.446;2024-03-25T09:44:53;14.10;;;3.28;;
78561;SDS011;68963;52.138;5.446;2024-03-25T09:47:20;10.82;;;3.70;;
78561;SDS011;68963;52.138;5.446;2024-03-25T09:49:47;13.55;;;3.60;;
78561;SDS011;68963;52.138;5.446;2024-03-25T09:52:13;11.52;;;3.58;;
78561;SDS011;68963;52.138;5.446;2024-03-25T09:54:42;14.10;;;3.40;;
78561;SDS011;68963;52.138;5.446;2024-03-25T09:57:08;11.45;;;3.50;;
78561;SDS011;68963;52.138;5.446;2024-03-25T09:59:34;12.80;;;3.13;;
78561;SDS011;68963;52.138;5.446;2024-03-25T10:02:00;13.82;;;3.58;;
78561;SDS011;68963;52.138;5.446;2024-03-25T10:04:28;11.32;;;3.22;;
78561;SDS011;68963;52.138;5.446;2024-03-25T10:06:53;13.25;;;2.90;;
78561;SDS011;68963;52.138;5.446;2024-03-25T10:09:19;11.75;;;2.70;;
78561;SDS011;68963;52.138;5.446;2024-03-25T10:11:49;10.93;;;2.80;;
78561;SDS011;68963;52.138;5.446;2024-03-25T10:14:18;15.13;;;4.45;;
78561;SDS011;68963;52.138;5.446;2024-03-25T10:16:48;11.50;;;2.72;;
78561;SDS011;68963;52.138;5.446;2024-03-25T10:19:14;10.13;;;2.80;;
78561;SDS011;68963;52.138;5.446;2024-03-25T10:21:40;15.30;;;3.25;;
78561;SDS011;68963;52.138;5.446;2024-03-25T10:24:06;14.05;;;3.03;;
78561;SDS011;68963;52.138;5.446;2024-03-25T10:26:32;13.30;;;3.47;;
78561;SDS011;68963;52.138;5.446;2024-03-25T10:29:06;10.80;;;2.78;;
78561;SDS011;68963;52.138;5.446;2024-03-25T10:31:33;12.10;;;3.00;;
78561;SDS011;68963;52.138;5.446;2024-03-25T10:33:59;11.93;;;2.90;;
78561;SDS011;68963;52.138;5.446;2024-03-25T10:36:25;11.95;;;3.63;;
78561;SDS011;68963;52.138;5.446;2024-03-25T10:38:53;12.15;;;3.58;;
78561;SDS011;68963;52.138;5.446;2024-03-25T10:41:20;12.00;;;3.78;;
78561;SDS011;68963;52.138;5.446;2024-03-25T10:43:48;13.90;;;3.97;;
78561;SDS011;68963;52.138;5.446;2024-03-25T10:46:18;12.90;;;3.83;;
78561;SDS011;68963;52.138;5.446;2024-03-25T10:48:48;10.50;;;3.65;;
78561;SDS011;68963;52.138;5.446;2024-03-25T10:51:33;14.73;;;3.95;;
78561;SDS011;68963;52.138;5.446;2024-03-25T10:54:01;12.93;;;3.88;;
78561;SDS011;68963;52.138;5.446;2024-03-25T10:56:28;13.63;;;3.83;;
78561;SDS011;68963;52.138;5.446;2024-03-25T10:58:54;14.10;;;4.57;;
78561;SDS011;68963;52.138;5.446;2024-03-25T11:01:21;14.93;;;4.20;;
78561;SDS011;68963;52.138;5.446;2024-03-25T11:03:47;10.98;;;3.63;;
78561;SDS011;68963;52.138;5.446;2024-03-25T11:06:14;9.82;;;3.72;;
78561;SDS011;68963;52.138;5.446;2024-03-25T11:08:42;9.25;;;3.60;;
78561;SDS011;68963;52.138;5.446;2024-03-25T11:11:12;11.30;;;3.65;;
78561;SDS011;68963;52.138;5.446;2024-03-25T11:13:38;12.02;;;3.70;;
78561;SDS011;68963;52.138;5.446;2024-03-25T11:16:04;14.02;;;3.83;;
78561;SDS011;68963;52.138;5.446;2024-03-25T11:18:32;13.13;;;4.10;;
78561;SDS011;68963;52.138;5.446;2024-03-25T11:21:05;15.10;;;4.45;;
78561;SDS011;68963;52.138;5.446;2024-03-25T11:23:40;12.23;;;3.90;;
78561;SDS011;68963;52.138;5.446;2024-03-25T11:26:16;12.82;;;3.75;;
78561;SDS011;68963;52.138;5.446;2024-03-25T11:28:46;10.02;;;3.40;;
78561;SDS011;68963;52.138;5.446;2024-03-25T11:31:12;12.57;;;3.92;;
78561;SDS011;68963;52.138;5.446;2024-03-25T11:33:38;10.65;;;3.65;;
78561;SDS011;68963;52.138;5.446;2024-03-25T11:36:04;10.10;;;3.75;;
78561;SDS011;68963;52.138;5.446;2024-03-25T11:38:30;12.07;;;3.95;;
78561;SDS011;68963;52.138;5.446;2024-03-25T11:40:56;11.23;;;3.42;;
78561;SDS011;68963;52.138;5.446;2024-03-25T11:43:22;9.52;;;3.70;;
78561;SDS011;68963;52.138;5.446;2024-03-25T11:45:48;7.50;;;3.20;;
78561;SDS011;68963;52.138;5.446;2024-03-25T11:48:17;10.77;;;3.33;;
78561;SDS011;68963;52.138;5.446;2024-03-25T11:50:46;10.82;;;3.40;;
78561;SDS011;68963;52.138;5.446;2024-03-25T11:53:13;11.80;;;3.58;;
78561;SDS011;68963;52.138;5.446;2024-03-25T11:55:39;10.93;;;4.00;;
78561;SDS011;68963;52.138;5.446;2024-03-25T11:58:06;8.85;;;4.07;;
78561;SDS011;68963;52.138;5.446;2024-03-25T12:00:33;10.55;;;4.20;;
78561;SDS011;68963;52.138;5.446;2024-03-25T12:02:58;10.82;;;4.13;;
78561;SDS011;68963;52.138;5.446;2024-03-25T12:05:24;11.25;;;4.05;;
78561;SDS011;68963;52.138;5.446;2024-03-25T12:07:50;11.25;;;4.22;;
78561;SDS011;68963;52.138;5.446;2024-03-25T12:10:16;14.07;;;4.30;;
78561;SDS011;68963;52.138;5.446;2024-03-25T12:13:00;10.75;;;4.32;;
78561;SDS011;68963;52.138;5.446;2024-03-25T12:15:26;13.30;;;4.88;;
78561;SDS011;68963;52.138;5.446;2024-03-25T12:17:52;11.40;;;4.68;;
78561;SDS011;68963;52.138;5.446;2024-03-25T12:20:17;8.93;;;4.93;;
78561;SDS011;68963;52.138;5.446;2024-03-25T12:22:44;13.55;;;5.13;;
78561;SDS011;68963;52.138;5.446;2024-03-25T12:25:10;11.63;;;5.20;;
78561;SDS011;68963;52.138;5.446;2024-03-25T12:27:36;11.98;;;5.07;;
78561;SDS011;68963;52.138;5.446;2024-03-25T12:30:07;10.93;;;5.15;;
78561;SDS011;68963;52.138;5.446;2024-03-25T12:32:41;13.55;;;4.80;;
78561;SDS011;68963;52.138;5.446;2024-03-25T12:35:15;10.50;;;4.90;;
78561;SDS011;68963;52.138;5.446;2024-03-25T12:37:45;11.10;;;5.53;;
78561;SDS011;68963;52.138;5.446;2024-03-25T12:40:12;10.20;;;5.10;;
78561;SDS011;68963;52.138;5.446;2024-03-25T12:42:51;11.52;;;4.72;;
78561;SDS011;68963;52.138;5.446;2024-03-25T12:45:17;11.82;;;4.47;;
78561;SDS011;68963;52.138;5.446;2024-03-25T12:47:44;7.65;;;4.20;;
78561;SDS011;68963;52.138;5.446;2024-03-25T12:50:09;8.18;;;4.38;;
78561;SDS011;68963;52.138;5.446;2024-03-25T12:52:35;9.32;;;4.45;;
78561;SDS011;68963;52.138;5.446;2024-03-25T12:55:01;8.35;;;3.90;;
78561;SDS011;68963;52.138;5.446;2024-03-25T12:57:28;8.57;;;3.90;;
78561;SDS011;68963;52.138;5.446;2024-03-25T12:59:54;9.10;;;3.80;;
78561;SDS011;68963;52.138;5.446;2024-03-25T13:02:20;10.02;;;4.00;;
78561;SDS011;68963;52.138;5.446;2024-03-25T13:04:45;9.32;;;4.57;;
78561;SDS011;68963;52.138;5.446;2024-03-25T13:07:11;10.30;;;4.82;;
78561;SDS011;68963;52.138;5.446;2024-03-25T13:09:36;9.57;;;4.18;;
78561;SDS011;68963;52.138;5.446;2024-03-25T13:12:02;10.30;;;4.72;;
78561;SDS011;68963;52.138;5.446;2024-03-25T13:14:29;10.10;;;4.53;;
78561;SDS011;68963;52.138;5.446;2024-03-25T13:16:55;9.57;;;4.85;;
78561;SDS011;68963;52.138;5.446;2024-03-25T13:19:20;10.38;;;4.85;;
78561;SDS011;68963;52.138;5.446;2024-03-25T13:21:46;9.68;;;4.05;;
78561;SDS011;68963;52.138;5.446;2024-03-25T13:24:13;10.15;;;4.15;;
78561;SDS011;68963;52.138;5.446;2024-03-25T13:26:39;8.98;;;4.35;;
78561;SDS011;68963;52.138;5.446;2024-03-25T13:29:04;10.55;;;4.60;;
78561;SDS011;68963;52.138;5.446;2024-03-25T13:31:32;9.95;;;4.30;;
78561;SDS011;68963;52.138;5.446;2024-03-25T13:33:58;9.95;;;4.30;;
78561;SDS011;68963;52.138;5.446;2024-03-25T13:36:23;8.85;;;3.60;;
78561;SDS011;68963;52.138;5.446;2024-03-25T13:38:49;7.47;;;3.90;;
78561;SDS011;68963;52.138;5.446;2024-03-25T13:41:14;8.48;;;3.85;;
78561;SDS011;68963;52.138;5.446;2024-03-25T13:43:43;11.52;;;4.20;;
78561;SDS011;68963;52.138;5.446;2024-03-25T13:46:09;9.18;;;4.10;;
78561;SDS011;68963;52.138;5.446;2024-03-25T13:48:34;10.98;;;4.03;;
78561;SDS011;68963;52.138;5.446;2024-03-25T13:51:00;15.50;;;5.38;;
78561;SDS011;68963;52.138;5.446;2024-03-25T13:53:25;19.55;;;5.22;;
78561;SDS011;68963;52.138;5.446;2024-03-25T13:55:52;9.90;;;4.30;;
78561;SDS011;68963;52.138;5.446;2024-03-25T13:58:17;9.43;;;4.10;;
78561;SDS011;68963;52.138;5.446;2024-03-25T14:00:43;20.42;;;5.53;;
78561;SDS011;68963;52.138;5.446;2024-03-25T14:03:08;9.00;;;3.83;;
78561;SDS011;68963;52.138;5.446;2024-03-25T14:05:35;8.20;;;3.63;;
78561;SDS011;68963;52.138;5.446;2024-03-25T14:08:01;10.45;;;4.47;;
78561;SDS011;68963;52.138;5.446;2024-03-25T14:10:27;7.90;;;3.72;;
78561;SDS011;68963;52.138;5.446;2024-03-25T14:12:52;7.00;;;3.58;;
78561;SDS011;68963;52.138;5.446;2024-03-25T14:15:18;11.50;;;3.72;;
78561;SDS011;68963;52.138;5.446;2024-03-25T14:17:43;9.18;;;3.80;;
78561;SDS011;68963;52.138;5.446;2024-03-25T14:20:09;8.20;;;3.70;;
78561;SDS011;68963;52.138;5.446;2024-03-25T14:22:36;9.57;;;3.58;;
78561;SDS011;68963;52.138;5.446;2024-03-25T14:25:01;9.45;;;3.90;;
78561;SDS011;68963;52.138;5.446;2024-03-25T14:27:27;7.93;;;3.50;;
78561;SDS011;68963;52.138;5.446;2024-03-25T14:29:52;9.15;;;3.63;;
78561;SDS011;68963;52.138;5.446;2024-03-25T14:32:18;8.85;;;3.47;;
78561;SDS011;68963;52.138;5.446;2024-03-25T14:34:45;9.32;;;3.90;;
78561;SDS011;68963;52.138;5.446;2024-03-25T14:37:11;10.77;;;3.63;;